Time;durP1;ratioP1;P1;durP2;ratioP2;P2;SDS_P1;SDS_P2;PMS_P1;PMS_P2;Temp;Humidity;BMP_temperature;BMP_pressure;BME280_temperature;BME280_humidity;BME280_pressure;Samples;Min_cycle;Max_cycle;Signal;HPM_P1;HPM_P2
2021/11/22 00:01:56;;;;;;;33.13;22.15;;;;;;;11.59;57.84;100126.00;5022338;28;20053;-68
2021/11/22 00:04:22;;;;;;;31.17;23.08;;;;;;;11.89;57.17;100160.78;5021179;28;20053;-69
2021/11/22 00:06:49;;;;;;;24.00;19.27;;;;;;;11.69;57.71;100166.19;5019419;28;20110;-68
2021/11/22 00:09:14;;;;;;;33.95;21.40;;;;;;;11.96;56.96;100145.81;5023949;28;20112;-67
2021/11/22 00:11:40;;;;;;;31.25;23.10;;;;;;;12.31;56.30;100163.84;5019269;28;20056;-67
2021/11/22 00:14:05;;;;;;;27.92;19.85;;;;;;;12.34;55.96;100163.84;5026077;28;20119;-68
2021/11/22 00:16:31;;;;;;;30.73;22.48;;;;;;;12.02;56.72;100138.75;5023642;28;20056;-69
2021/11/22 00:18:56;;;;;;;24.48;20.45;;;;;;;12.16;56.56;100164.03;5010542;28;20054;-67
2021/11/22 00:21:23;;;;;;;31.50;23.55;;;;;;;12.23;55.90;100131.53;5009257;28;20088;-69
2021/11/22 00:23:50;;;;;;;31.05;21.40;;;;;;;12.18;56.68;100155.25;5007880;28;20041;-68
2021/11/22 00:26:16;;;;;;;27.25;21.58;;;;;;;11.87;57.37;100123.16;5013662;28;20116;-68
2021/11/22 00:28:41;;;;;;;35.10;22.52;;;;;;;12.38;56.25;100162.91;5010661;28;20037;-68
2021/11/22 00:31:07;;;;;;;32.47;22.48;;;;;;;12.40;55.88;100133.94;5007609;28;20142;-70
2021/11/22 00:33:32;;;;;;;29.33;23.90;;;;;;;11.84;57.20;100147.66;5007149;28;20037;-69
2021/11/22 00:35:58;;;;;;;37.58;25.73;;;;;;;12.45;56.43;100155.81;5006254;28;20453;-67
2021/11/22 00:38:24;;;;;;;34.30;22.63;;;;;;;12.52;56.19;100157.47;5012523;28;20038;-69
2021/11/22 00:40:49;;;;;;;27.92;23.20;;;;;;;12.35;55.97;100143.66;5010144;28;20053;-68
2021/11/22 00:43:15;;;;;;;32.88;24.38;;;;;;;12.23;56.69;100155.19;5009540;28;20156;-67
2021/11/22 00:45:41;;;;;;;33.72;24.33;;;;;;;12.48;56.10;100165.44;5010160;28;20037;-69
2021/11/22 00:48:06;;;;;;;31.55;26.23;;;;;;;11.80;56.79;100148.59;5011415;28;20029;-67
2021/11/22 00:50:35;;;;;;;38.22;25.23;;;;;;;11.91;56.94;100159.00;5009127;28;20054;-68
2021/11/22 00:53:01;;;;;;;36.72;25.20;;;;;;;12.23;56.56;100155.19;5014576;28;20417;-68
2021/11/22 00:55:27;;;;;;;34.22;23.90;;;;;;;12.37;56.16;100157.66;5001717;28;20054;-68
2021/11/22 00:57:52;;;;;;;33.42;24.23;;;;;;;11.99;57.10;100165.09;5009043;28;20056;-67
2021/11/22 01:00:19;;;;;;;32.80;24.20;;;;;;;11.93;57.00;100156.38;5004336;28;20053;-67
2021/11/22 01:02:45;;;;;;;29.63;22.65;;;;;;;12.23;56.07;100156.06;5006924;28;20407;-69
2021/11/22 01:05:12;;;;;;;29.27;21.85;;;;;;;12.50;55.61;100161.03;5008958;28;20061;-67
2021/11/22 01:07:37;;;;;;;30.92;22.35;;;;;;;12.61;54.75;100160.00;5009929;28;20821;-66
2021/11/22 01:10:07;;;;;;;28.73;24.27;;;;;;;12.39;55.25;100167.28;5008350;28;20046;-66
2021/11/22 01:12:32;;;;;;;38.60;23.77;;;;;;;12.38;55.55;100154.13;5003892;28;20049;-68
2021/11/22 01:15:00;;;;;;;27.45;23.10;;;;;;;12.51;55.06;100139.09;5010405;28;20634;-68
2021/11/22 01:17:26;;;;;;;30.02;23.67;;;;;;;12.54;54.67;100134.66;5011257;28;20054;-67
2021/11/22 01:19:53;;;;;;;33.33;23.75;;;;;;;12.18;55.69;100131.56;5005873;28;20524;-67
2021/11/22 01:22:23;;;;;;;32.65;24.30;;;;;;;12.16;56.23;100150.88;5011158;28;20156;-67
2021/11/22 01:24:50;;;;;;;34.45;23.95;;;;;;;12.23;56.11;100153.44;5009031;28;20053;-67
2021/11/22 01:27:16;;;;;;;32.95;26.02;;;;;;;12.08;56.04;100126.41;5014422;28;20555;-68
2021/11/22 01:29:41;;;;;;;31.48;24.83;;;;;;;12.19;56.02;100154.34;5005886;28;20084;-68
2021/11/22 01:32:07;;;;;;;28.15;24.20;;;;;;;11.72;57.51;100155.66;5011331;28;20123;-68
2021/11/22 01:34:33;;;;;;;29.08;24.00;;;;;;;12.07;56.22;100124.69;5004554;28;20073;-68
2021/11/22 01:36:58;;;;;;;28.85;21.58;;;;;;;12.39;55.58;100155.91;5007512;28;20053;-67
2021/11/22 01:39:24;;;;;;;29.83;22.52;;;;;;;12.55;55.21;100151.31;5010713;28;20018;-68
2021/11/22 01:41:50;;;;;;;32.05;23.52;;;;;;;12.50;55.15;100153.13;5009409;28;20033;-67
2021/11/22 01:44:16;;;;;;;28.83;23.70;;;;;;;11.77;56.68;100118.81;5007776;28;20041;-66
2021/11/22 01:46:41;;;;;;;27.90;23.55;;;;;;;12.08;56.45;100137.84;5010284;28;20042;-69
2021/11/22 01:49:07;;;;;;;27.75;24.63;;;;;;;11.92;56.44;100112.59;5007914;28;20072;-68
2021/11/22 01:51:33;;;;;;;36.75;24.45;;;;;;;11.92;56.40;100138.88;5011701;28;20731;-68
2021/11/22 01:53:59;;;;;;;28.50;22.70;;;;;;;12.20;55.75;100139.44;5007476;28;20448;-67
2021/11/22 01:56:26;;;;;;;34.80;24.17;;;;;;;12.12;55.99;100144.78;5012993;28;20048;-69
2021/11/22 01:58:52;;;;;;;36.92;24.25;;;;;;;12.39;55.23;100132.22;5009313;28;20042;-69
2021/11/22 02:01:18;;;;;;;29.33;23.02;;;;;;;12.25;55.47;100143.75;5006783;28;20141;-68
2021/11/22 02:03:45;;;;;;;31.90;21.70;;;;;;;11.27;57.57;100112.25;5010349;28;20041;-68
2021/11/22 02:06:11;;;;;;;43.38;25.27;;;;;;;11.64;57.10;100135.59;5008134;28;20053;-68
2021/11/22 02:08:36;;;;;;;31.38;21.60;;;;;;;11.57;57.25;100138.28;5010325;28;20616;-68
2021/11/22 02:11:03;;;;;;;32.58;24.90;;;;;;;11.59;56.72;100139.13;5007474;28;20044;-68
2021/11/22 02:13:29;;;;;;;24.88;22.17;;;;;;;11.45;57.15;100132.22;5011113;28;20164;-68
2021/11/22 02:15:55;;;;;;;29.58;23.20;;;;;;;11.78;56.09;100112.69;5007685;28;20168;-67
2021/11/22 02:18:21;;;;;;;25.00;21.90;;;;;;;11.68;55.96;100105.75;5006542;28;20138;-68
2021/11/22 02:20:48;;;;;;;26.25;21.10;;;;;;;11.99;55.59;100130.03;5009064;28;20077;-68
2021/11/22 02:23:14;;;;;;;27.10;23.60;;;;;;;12.03;55.08;100121.19;5006566;28;20057;-67
2021/11/22 02:25:43;;;;;;;26.83;21.88;;;;;;;11.43;56.14;100105.13;5011425;28;20851;-68
2021/11/22 02:28:09;;;;;;;33.00;23.38;;;;;;;11.78;55.56;100102.16;5009670;28;20060;-70
2021/11/22 02:30:39;;;;;;;26.92;21.52;;;;;;;12.01;55.24;100142.28;5007112;28;20087;-68
2021/11/22 02:33:08;;;;;;;28.60;21.58;;;;;;;11.68;55.74;100119.75;5011070;28;20034;-67
2021/11/22 02:35:35;;;;;;;29.30;23.00;;;;;;;11.78;55.37;100112.69;5009196;28;20091;-66
2021/11/22 02:38:01;;;;;;;26.95;22.10;;;;;;;12.03;54.39;100108.94;5006107;28;20050;-68
2021/11/22 02:40:26;;;;;;;29.02;22.10;;;;;;;12.10;54.65;100141.28;5006785;28;20062;-69
2021/11/22 02:42:52;;;;;;;29.02;21.55;;;;;;;11.99;54.61;100119.53;5009940;28;20119;-68
2021/11/22 02:45:20;;;;;;;25.88;22.15;;;;;;;11.65;55.33;100121.56;5010752;28;20889;-67
2021/11/22 02:47:47;;;;;;;23.10;19.73;;;;;;;11.84;54.90;100146.78;5006615;28;20049;-69
2021/11/22 02:50:14;;;;;;;29.58;21.10;;;;;;;11.68;55.36;100150.44;5010833;28;20045;-67
2021/11/22 02:52:41;;;;;;;24.73;19.92;;;;;;;11.95;54.95;100152.84;5010913;28;20085;-68
2021/11/22 02:55:09;;;;;;;23.42;20.00;;;;;;;11.29;55.90;100145.50;5005677;28;20517;-69
2021/11/22 02:57:35;;;;;;;28.27;20.58;;;;;;;11.37;56.33;100158.56;5008628;28;20042;-67
2021/11/22 03:00:04;;;;;;;26.42;21.35;;;;;;;11.82;55.12;100151.19;5006650;28;20049;-67
2021/11/22 03:02:29;;;;;;;25.58;20.75;;;;;;;12.01;54.31;100150.16;5010722;28;20085;-66
2021/11/22 03:04:54;;;;;;;24.15;20.08;;;;;;;11.89;54.36;100131.84;5007122;28;20770;-68
2021/11/22 03:07:20;;;;;;;25.13;20.17;;;;;;;12.04;54.37;100150.13;5007803;28;20034;-68
2021/11/22 03:09:45;;;;;;;27.80;20.38;;;;;;;11.65;54.66;100114.53;5011873;28;20057;-68
2021/11/22 03:12:13;;;;;;;28.75;19.33;;;;;;;11.66;54.60;100121.56;5007377;28;20523;-69
2021/11/22 03:14:39;;;;;;;28.33;21.23;;;;;;;11.81;54.84;100154.72;5007566;28;20045;-68
2021/11/22 03:17:05;;;;;;;23.98;20.15;;;;;;;11.81;54.79;100152.94;5003644;28;20057;-68
2021/11/22 03:19:30;;;;;;;39.83;22.52;;;;;;;11.96;54.50;100151.09;5008441;28;20042;-69
2021/11/22 03:21:58;;;;;;;28.63;20.58;;;;;;;11.83;54.37;100153.81;5007206;28;20580;-68
2021/11/22 03:24:24;;;;;;;23.77;19.33;;;;;;;11.72;54.74;100139.00;5006725;28;20034;-68
2021/11/22 03:26:49;;;;;;;32.13;24.40;;;;;;;11.62;54.85;100164.50;5009806;28;20547;-67
2021/11/22 03:29:14;;;;;;;32.28;23.40;;;;;;;11.70;55.03;100170.56;5006646;28;20677;-69
2021/11/22 03:31:40;;;;;;;30.75;21.83;;;;;;;11.49;55.02;100147.09;5010779;28;20077;-68
2021/11/22 03:34:09;;;;;;;26.20;21.80;;;;;;;11.67;55.13;100175.00;5005628;28;20045;-68
2021/11/22 03:36:35;;;;;;;33.00;23.65;;;;;;;11.80;54.47;100171.38;5011266;28;20034;-67
2021/11/22 03:39:05;;;;;;;40.60;22.83;;;;;;;11.35;55.25;100176.09;5009143;28;20061;-68
2021/11/22 03:41:32;;;;;;;31.95;24.00;;;;;;;11.51;54.98;100168.97;5008394;28;20046;-68
2021/11/22 03:44:01;;;;;;;31.63;23.65;;;;;;;11.50;55.13;100183.00;5006972;28;20513;-67
2021/11/22 03:46:26;;;;;;;30.17;23.75;;;;;;;11.51;55.15;100182.97;5001305;28;20108;-69
2021/11/22 03:48:52;;;;;;;34.00;24.27;;;;;;;11.20;55.71;100179.72;5007515;28;20409;-68
2021/11/22 03:51:19;;;;;;;31.48;25.67;;;;;;;11.19;55.66;100157.84;5010538;28;20033;-67
2021/11/22 03:53:46;;;;;;;26.75;22.42;;;;;;;11.09;56.32;100189.41;5010876;28;20038;-68
2021/11/22 03:56:11;;;;;;;37.63;25.50;;;;;;;11.34;55.66;100183.09;5011884;28;20493;-69
2021/11/22 03:58:37;;;;;;;32.95;24.40;;;;;;;11.19;55.90;100191.97;5011729;28;20042;-67
2021/11/22 04:01:04;;;;;;;32.60;24.02;;;;;;;10.99;56.04;100168.44;5017977;28;20494;-69
2021/11/22 04:03:30;;;;;;;29.23;23.85;;;;;;;11.33;55.86;100172.59;5013582;28;20041;-66
2021/11/22 04:05:56;;;;;;;30.33;24.00;;;;;;;11.52;55.27;100197.88;5011149;28;20033;-68
2021/11/22 04:08:21;;;;;;;35.15;22.63;;;;;;;11.57;55.33;100201.34;5012758;28;20078;-67
2021/11/22 04:10:48;;;;;;;28.67;21.98;;;;;;;11.56;54.90;100201.34;5008610;28;20469;-68
2021/11/22 04:13:13;;;;;;;29.35;22.48;;;;;;;10.80;56.84;100200.94;5013743;28;20045;-68
2021/11/22 04:15:39;;;;;;;29.73;22.92;;;;;;;10.44;57.64;100175.69;5006681;28;20584;-67
2021/11/22 04:18:05;;;;;;;34.70;26.58;;;;;;;10.92;56.45;100176.38;5012473;28;20076;-68
2021/11/22 04:20:31;;;;;;;27.73;23.40;;;;;;;10.79;57.17;100204.41;5010669;28;20054;-68
2021/11/22 04:22:57;;;;;;;26.55;23.40;;;;;;;10.85;56.55;100174.66;5010319;28;20080;-68
2021/11/22 04:25:23;;;;;;;31.50;25.38;;;;;;;10.92;56.22;100173.75;5013705;28;20053;-67
2021/11/22 04:28:20;;;;;;;33.20;25.95;;;;;;;11.16;56.51;100209.47;5034327;28;20135;-68
2021/11/22 04:30:45;;;;;;;34.30;26.13;;;;;;;10.14;58.37;100186.22;5006502;28;20042;-67
2021/11/22 04:33:11;;;;;;;27.98;22.70;;;;;;;10.58;57.59;100208.00;5005772;28;20140;-68
2021/11/22 04:35:37;;;;;;;30.58;25.65;;;;;;;10.85;57.32;100217.53;5006233;28;20038;-68
2021/11/22 04:38:03;;;;;;;33.88;27.77;;;;;;;10.86;56.40;100179.00;5004743;28;20061;-69
2021/11/22 04:40:29;;;;;;;29.98;24.15;;;;;;;10.21;58.04;100223.81;5004991;28;20050;-67
2021/11/22 04:42:54;;;;;;;28.55;24.05;;;;;;;10.03;58.37;100195.00;5008018;28;20085;-68
2021/11/22 04:45:23;;;;;;;32.45;25.38;;;;;;;10.43;57.26;100203.66;5005468;28;20037;-68
2021/11/22 04:47:50;;;;;;;34.63;23.23;;;;;;;10.88;56.60;100228.00;5004108;28;20054;-68
2021/11/22 04:50:17;;;;;;;32.42;23.95;;;;;;;10.72;56.56;100190.47;5004066;28;20046;-67
2021/11/22 04:52:44;;;;;;;37.60;26.65;;;;;;;10.93;56.46;100236.75;5006376;28;20862;-69
2021/11/22 04:55:11;;;;;;;31.67;25.40;;;;;;;10.77;56.33;100212.31;5022522;28;20066;-68
2021/11/22 04:57:36;;;;;;;32.22;25.42;;;;;;;10.82;56.44;100235.06;5002205;28;20034;-67
2021/11/22 05:00:04;;;;;;;33.85;22.15;;;;;;;10.81;56.51;100235.91;5007409;28;20026;-69
2021/11/22 05:02:30;;;;;;;35.28;24.77;;;;;;;10.95;56.44;100236.72;5007222;28;20042;-68
2021/11/22 05:04:55;;;;;;;29.35;25.85;;;;;;;10.78;56.14;100208.78;5002723;28;20057;-69
2021/11/22 05:07:21;;;;;;;36.58;25.67;;;;;;;10.84;56.22;100246.38;5004733;28;20077;-69
2021/11/22 05:09:46;;;;;;;27.17;23.77;;;;;;;10.77;56.72;100246.44;5005325;28;20053;-68
2021/11/22 05:12:13;;;;;;;29.63;24.08;;;;;;;10.97;56.10;100245.47;5006777;28;20102;-68
2021/11/22 05:14:38;;;;;;;34.47;25.05;;;;;;;10.86;56.08;100250.75;5005093;28;20127;-68
2021/11/22 05:17:04;;;;;;;41.70;26.10;;;;;;;10.93;56.10;100247.25;5004627;28;20053;-69
2021/11/22 05:19:30;;;;;;;33.47;26.48;;;;;;;10.81;56.25;100252.53;5000382;28;20046;-68
2021/11/22 05:21:58;;;;;;;30.88;26.40;;;;;;;10.47;57.25;100263.13;5001584;28;20090;-69
2021/11/22 05:24:24;;;;;;;28.67;22.90;;;;;;;10.66;57.08;100258.69;5006265;28;20041;-68
2021/11/22 05:26:49;;;;;;;31.88;24.92;;;;;;;10.73;56.38;100236.81;5003782;28;20050;-69
2021/11/22 05:29:15;;;;;;;43.67;26.88;;;;;;;10.85;55.84;100271.78;5005454;28;20080;-68
2021/11/22 05:31:40;;;;;;;38.95;25.55;;;;;;;10.76;55.86;100249.91;5006832;28;20127;-68
2021/11/22 05:34:06;;;;;;;31.92;26.48;;;;;;;10.64;56.30;100252.59;5002845;28;20529;-68
2021/11/22 05:36:35;;;;;;;35.03;25.13;;;;;;;10.73;56.69;100289.31;5009561;28;20525;-69
2021/11/22 05:39:02;;;;;;;29.48;23.45;;;;;;;10.67;56.64;100286.69;4991822;28;20033;-69
2021/11/22 05:41:27;;;;;;;34.75;24.85;;;;;;;10.23;57.08;100290.25;4991517;28;20102;-69
2021/11/22 05:43:53;;;;;;;35.95;25.65;;;;;;;10.43;57.10;100303.34;4990139;28;20080;-68
2021/11/22 05:46:18;;;;;;;35.15;26.83;;;;;;;10.63;57.06;100319.06;5020580;28;20050;-68
2021/11/22 05:50:16;;;;;;;35.85;27.73;;;;;;;10.05;58.20;100300.72;5022058;28;20642;-73
2021/11/22 05:52:48;;;;;;;36.15;27.17;;;;;;;10.62;57.35;100324.31;4996831;28;20046;-68
2021/11/22 05:55:19;;;;;;;40.55;27.13;;;;;;;10.56;57.15;100297.22;4995494;28;20049;-66
2021/11/22 05:57:44;;;;;;;41.88;30.08;;;;;;;10.79;56.88;100335.63;4993911;28;20042;-69
2021/11/22 06:02:20;;;;;;;33.45;27.50;;;;;;;10.86;56.79;100333.88;4946487;28;20780;-68
2021/11/22 06:04:46;;;;;;;40.50;28.55;;;;;;;10.91;55.86;100300.59;4930069;28;20408;-68
2021/11/22 06:07:11;;;;;;;38.33;28.38;;;;;;;10.87;57.01;100327.78;4948973;28;20082;-68
2021/11/22 06:09:37;;;;;;;40.38;29.80;;;;;;;10.89;56.66;100331.28;4929155;29;20535;-68
2021/11/22 06:12:03;;;;;;;44.78;27.65;;;;;;;10.87;56.49;100333.88;4924261;28;20783;-67
2021/11/22 06:14:28;;;;;;;52.03;35.78;;;;;;;10.80;56.76;100347.03;4923626;28;20276;-68
2021/11/22 06:16:54;;;;;;;49.65;32.28;;;;;;;11.01;56.21;100336.47;4921268;28;20114;-68
2021/11/22 06:19:20;;;;;;;41.15;30.77;;;;;;;10.98;56.09;100316.34;4919800;28;20056;-67
2021/11/22 06:21:46;;;;;;;38.28;31.52;;;;;;;11.00;55.93;100326.84;4923308;28;20048;-68
2021/11/22 06:24:12;;;;;;;38.22;30.67;;;;;;;10.54;57.05;100327.81;4922373;28;20540;-68
2021/11/22 06:26:37;;;;;;;42.47;30.60;;;;;;;10.52;57.25;100370.69;4925725;28;20055;-68
2021/11/22 06:29:03;;;;;;;41.60;30.25;;;;;;;8.51;62.28;100333.31;4932099;28;20433;-68
2021/11/22 06:31:29;;;;;;;48.75;32.83;;;;;;;8.01;65.39;100365.97;4934410;28;20047;-68
2021/11/22 06:33:54;;;;;;;43.13;30.17;;;;;;;7.51;67.58;100351.50;4944600;28;20431;-69
2021/11/22 06:36:20;;;;;;;46.63;30.90;;;;;;;7.76;66.72;100355.28;4954667;28;20471;-68
2021/11/22 06:38:45;;;;;;;37.00;30.65;;;;;;;7.65;66.76;100369.06;4935489;28;20055;-69
2021/11/22 06:41:11;;;;;;;44.85;30.67;;;;;;;7.24;68.00;100385.13;4940505;28;20107;-68
2021/11/22 06:43:37;;;;;;;42.63;31.73;;;;;;;8.35;65.41;100376.72;4937540;28;20118;-69
2021/11/22 06:46:03;;;;;;;43.92;30.35;;;;;;;6.84;68.05;100364.59;4938496;28;20052;-69
2021/11/22 06:48:28;;;;;;;44.03;32.20;;;;;;;6.72;69.77;100386.16;4935236;28;20098;-69
2021/11/22 06:50:54;;;;;;;42.20;33.95;;;;;;;7.12;68.55;100398.91;4936726;28;20100;-69
2021/11/22 06:53:21;;;;;;;45.35;32.47;;;;;;;5.92;71.94;100408.22;4934976;28;20095;-69
2021/11/22 06:55:49;;;;;;;49.80;37.20;;;;;;;6.68;70.08;100414.75;4941412;28;20057;-69
2021/11/22 06:58:14;;;;;;;46.20;31.45;;;;;;;6.68;69.81;100406.94;4939846;28;20043;-68
2021/11/22 07:00:40;;;;;;;43.10;34.28;;;;;;;6.34;70.50;100415.09;4948229;28;20522;-70
2021/11/22 07:03:06;;;;;;;44.67;32.47;;;;;;;6.56;70.18;100412.81;4960359;28;20038;-68
2021/11/22 07:05:32;;;;;;;35.80;31.85;;;;;;;7.07;68.69;100421.41;4957092;28;20071;-69
2021/11/22 07:07:58;;;;;;;46.60;29.33;;;;;;;7.00;68.03;100394.38;4952760;28;20040;-71
2021/11/22 07:10:24;;;;;;;39.58;31.83;;;;;;;6.23;70.42;100377.53;4960746;28;20047;-69
2021/11/22 07:12:51;;;;;;;42.10;30.50;;;;;;;6.51;69.95;100411.88;4951488;28;20502;-69
2021/11/22 07:15:20;;;;;;;43.10;30.58;;;;;;;6.31;70.22;100382.88;4945198;28;20035;-69
2021/11/22 07:17:47;;;;;;;33.70;30.02;;;;;;;6.60;70.32;100421.56;4944280;28;20039;-69
2021/11/22 07:20:12;;;;;;;46.33;32.03;;;;;;;7.48;67.08;100416.75;4945180;28;20854;-69
2021/11/22 07:22:38;;;;;;;36.95;29.38;;;;;;;8.25;64.68;100423.69;4945145;28;20054;-70
2021/11/22 07:25:04;;;;;;;55.60;31.08;;;;;;;8.54;63.82;100422.25;4946942;28;20145;-69
2021/11/22 07:27:30;;;;;;;46.85;35.28;;;;;;;7.98;65.57;100421.69;4947778;28;20051;-69
2021/11/22 07:29:57;;;;;;;48.72;34.90;;;;;;;8.56;63.10;100415.28;4938550;28;20035;-69
2021/11/22 07:32:23;;;;;;;48.08;31.08;;;;;;;7.94;64.39;100416.44;4943628;28;20098;-68
2021/11/22 07:34:49;;;;;;;43.13;31.02;;;;;;;7.86;65.85;100394.56;4945955;28;20106;-69
2021/11/22 07:37:15;;;;;;;39.20;33.13;;;;;;;8.29;64.34;100429.84;4945126;28;20082;-69
2021/11/22 07:40:22;;;;;;;42.45;30.48;;;;;;;7.25;66.86;100431.22;5044846;27;20617;-69
2021/11/22 07:42:49;;;;;;;42.78;32.00;;;;;;;8.12;64.57;100421.81;5005332;28;20046;-71
2021/11/22 07:45:15;;;;;;;43.95;30.92;;;;;;;8.55;63.52;100430.09;5000334;28;20148;-69
2021/11/22 07:47:40;;;;;;;58.67;39.70;;;;;;;9.24;61.03;100412.25;5000231;28;20550;-69
2021/11/22 07:50:06;;;;;;;47.78;32.10;;;;;;;7.35;65.82;100402.69;5000210;28;20042;-69
2021/11/22 07:52:32;;;;;;;42.95;31.73;;;;;;;7.32;67.20;100438.28;4999125;28;20050;-69
2021/11/22 07:54:57;;;;;;;47.47;33.20;;;;;;;7.69;66.44;100442.25;5003949;28;20057;-68
2021/11/22 07:58:20;;;;;;;55.75;34.72;;;;;;;9.13;62.43;100453.22;5022102;28;20635;-69
2021/11/22 08:00:46;;;;;;;39.17;31.38;;;;;;;9.66;60.16;100441.28;4981086;28;20051;-68
2021/11/22 08:03:11;;;;;;;47.40;33.47;;;;;;;8.70;63.25;100458.13;4982664;28;20101;-69
2021/11/22 08:05:37;;;;;;;46.17;33.28;;;;;;;10.05;60.09;100456.25;4980163;28;20030;-69
2021/11/22 08:08:03;;;;;;;45.95;36.33;;;;;;;10.01;59.44;100444.00;4980008;28;20051;-69
2021/11/22 08:10:31;;;;;;;44.00;35.83;;;;;;;10.14;59.51;100456.28;4981068;28;20042;-68
2021/11/22 08:13:00;;;;;;;49.03;29.95;;;;;;;9.58;60.84;100432.53;4979760;28;20042;-69
2021/11/22 08:15:27;;;;;;;41.60;32.95;;;;;;;9.74;61.10;100468.41;4981613;28;20039;-69
2021/11/22 08:17:53;;;;;;;50.53;36.28;;;;;;;10.14;59.50;100450.19;4979620;28;20042;-68
2021/11/22 08:20:21;;;;;;;41.35;33.13;;;;;;;10.25;59.11;100465.91;4978343;28;20518;-69
2021/11/22 08:22:48;;;;;;;46.38;34.83;;;;;;;9.52;60.68;100460.41;4980980;28;20050;-69
2021/11/22 08:25:15;;;;;;;43.30;33.95;;;;;;;8.94;62.71;100443.47;4980180;28;20050;-69
2021/11/22 08:27:41;;;;;;;44.88;37.90;;;;;;;9.05;63.02;100450.53;4980921;28;20121;-70
2021/11/22 08:30:16;;;;;;;55.45;35.47;;;;;;;9.88;60.74;100460.56;4980122;28;20117;-69
2021/11/22 08:32:44;;;;;;;40.38;35.22;;;;;;;9.70;62.14;100471.88;4978801;28;20093;-68
2021/11/22 08:35:11;;;;;;;46.13;33.97;;;;;;;10.41;59.01;100445.88;4982402;28;20506;-68
2021/11/22 08:37:38;;;;;;;51.75;34.55;;;;;;;10.20;60.72;100475.53;4980701;28;20080;-71
2021/11/22 08:40:06;;;;;;;44.75;34.95;;;;;;;10.91;58.38;100468.63;4981601;28;20174;-69
2021/11/22 08:42:32;;;;;;;44.97;35.28;;;;;;;11.16;57.27;100448.47;4980511;28;20046;-68
2021/11/22 08:44:59;;;;;;;44.95;36.58;;;;;;;9.96;60.67;100471.09;4981260;28;20453;-69
2021/11/22 08:47:25;;;;;;;57.28;38.03;;;;;;;10.70;58.27;100475.66;4981103;28;20117;-68
2021/11/22 08:49:51;;;;;;;42.97;37.13;;;;;;;10.13;60.17;100440.53;4980282;28;20428;-70
2021/11/22 08:52:17;;;;;;;47.95;38.35;;;;;;;10.91;57.97;100443.28;4982304;28;20414;-69
2021/11/22 08:56:20;;;;;;;49.70;39.28;;;;;;;10.55;58.60;100459.88;5030457;28;20630;-70
2021/11/22 08:58:47;;;;;;;48.25;37.63;;;;;;;10.14;60.08;100453.66;5001234;28;20038;-70
2021/11/22 09:01:13;;;;;;;45.25;36.20;;;;;;;10.51;58.78;100421.38;5006864;28;20666;-70
2021/11/22 09:03:39;;;;;;;53.05;38.60;;;;;;;10.42;59.50;100459.00;5005585;28;20041;-69
2021/11/22 09:06:05;;;;;;;44.22;34.92;;;;;;;10.33;59.55;100454.59;5006094;28;20034;-69
2021/11/22 09:08:30;;;;;;;49.80;39.58;;;;;;;10.82;58.40;100452.91;5011143;28;20050;-69
2021/11/22 09:10:56;;;;;;;50.22;40.05;;;;;;;10.36;59.80;100456.34;4997165;28;20086;-68
2021/11/22 09:13:23;;;;;;;47.15;39.60;;;;;;;10.40;58.84;100410.03;5006739;28;20100;-70
2021/11/22 09:15:48;;;;;;;52.05;38.92;;;;;;;10.39;60.10;100452.88;5001381;28;20046;-70
2021/11/22 09:18:14;;;;;;;47.75;37.35;;;;;;;10.43;59.87;100458.13;5009003;28;20045;-69
2021/11/22 09:20:40;;;;;;;46.05;36.38;;;;;;;10.54;58.74;100424.91;5002015;28;20050;-69
2021/11/22 09:23:06;;;;;;;54.17;38.53;;;;;;;10.68;59.13;100445.03;5004177;28;20150;-70
2021/11/22 09:25:32;;;;;;;55.63;40.78;;;;;;;10.91;58.53;100435.38;5005214;28;20560;-68
2021/11/22 09:27:59;;;;;;;62.03;39.92;;;;;;;11.24;58.26;100448.44;4999837;28;20582;-69
2021/11/22 09:30:24;;;;;;;54.72;40.72;;;;;;;11.43;57.96;100447.53;5001738;28;20036;-68
2021/11/22 09:32:50;;;;;;;47.45;41.10;;;;;;;11.20;57.98;100395.06;5004448;28;20037;-70
2021/11/22 09:35:16;;;;;;;67.03;41.85;;;;;;;12.25;55.78;100434.91;5001160;28;20050;-69
2021/11/22 09:37:42;;;;;;;51.75;40.97;;;;;;;11.81;56.66;100425.47;5002604;28;20058;-69
2021/11/22 09:40:09;;;;;;;49.05;38.83;;;;;;;11.55;57.52;100438.75;4999267;28;20049;-70
2021/11/22 09:42:35;;;;;;;45.72;38.88;;;;;;;11.84;57.37;100412.31;5007921;28;20081;-69
2021/11/22 09:45:02;;;;;;;49.17;35.67;;;;;;;13.04;53.91;100443.94;5004386;28;20754;-70
2021/11/22 09:47:29;;;;;;;65.03;36.88;;;;;;;12.28;54.68;100407.72;5007965;28;20138;-70
2021/11/22 09:49:55;;;;;;;59.63;37.40;;;;;;;12.39;55.23;100422.53;5007127;28;20524;-69
2021/11/22 09:54:19;;;;;;;51.80;33.42;;;;;;;14.30;50.53;100430.97;5042667;28;20627;-69
2021/11/22 09:56:49;;;;;;;35.47;28.73;;;;;;;14.70;49.16;100433.03;5031077;28;20468;-69
2021/11/22 09:59:14;;;;;;;34.17;28.33;;;;;;;15.01;48.00;100438.66;5037178;28;20060;-68
2021/11/22 10:01:40;;;;;;;40.65;24.90;;;;;;;14.98;46.93;100441.34;5041083;28;20033;-69
2021/11/22 10:04:14;;;;;;;28.35;24.58;;;;;;;14.70;47.58;100407.50;5036895;28;20559;-68
2021/11/22 10:06:46;;;;;;;28.30;23.25;;;;;;;14.90;47.01;100435.34;5038455;28;20033;-69
2021/11/22 10:09:30;;;;;;;42.78;24.73;;;;;;;12.67;50.77;100428.47;5036296;28;20123;-70
2021/11/22 10:12:00;;;;;;;34.90;23.75;;;;;;;13.57;49.74;100383.63;5039324;28;20729;-70
2021/11/22 10:14:27;;;;;;;38.97;23.75;;;;;;;14.41;47.29;100400.00;5042146;28;20049;-68
2021/11/22 10:16:52;;;;;;;31.85;23.98;;;;;;;13.69;47.73;100407.19;5035447;28;20056;-69
2021/11/22 10:19:21;;;;;;;25.30;21.77;;;;;;;13.01;50.68;100425.50;5037900;28;20045;-69
2021/11/22 10:21:48;;;;;;;26.45;23.02;;;;;;;13.27;51.16;100433.19;5039026;28;20053;-69
2021/11/22 10:24:14;;;;;;;25.55;20.90;;;;;;;14.49;47.94;100403.41;5041240;28;22457;-69
2021/11/22 10:26:43;;;;;;;27.95;22.60;;;;;;;13.40;49.29;100380.34;5042066;28;20041;-70
2021/11/22 10:29:10;;;;;;;30.80;21.27;;;;;;;14.57;47.54;100406.81;5042131;28;20062;-69
2021/11/22 10:31:37;;;;;;;27.63;22.17;;;;;;;14.03;47.97;100398.84;5042633;28;20124;-69
2021/11/22 10:34:03;;;;;;;34.72;23.38;;;;;;;13.94;48.91;100430.63;5038712;28;20114;-69
2021/11/22 10:36:36;;;;;;;30.65;23.20;;;;;;;14.65;48.22;100424.31;5038683;28;20485;-69
2021/11/22 10:39:04;;;;;;;30.83;22.08;;;;;;;14.95;47.34;100421.13;5039182;28;20028;-70
2021/11/22 10:41:39;;;;;;;43.28;24.83;;;;;;;15.79;45.28;100402.78;5043285;28;20041;-70
2021/11/22 10:44:13;;;;;;;42.65;24.60;;;;;;;16.00;46.35;100414.66;5038302;28;20488;-71
2021/11/22 10:46:44;;;;;;;27.67;19.83;;;;;;;15.45;45.26;100418.44;5038277;28;20049;-70
2021/11/22 10:49:16;;;;;;;31.88;20.40;;;;;;;15.79;46.51;100416.00;5041644;28;20057;-70
2021/11/22 10:51:48;;;;;;;24.10;19.58;;;;;;;15.61;46.09;100419.84;5036718;28;20040;-70
2021/11/22 10:54:17;;;;;;;23.65;18.48;;;;;;;16.49;44.74;100410.00;5035466;28;20059;-69
2021/11/22 10:56:49;;;;;;;22.10;17.58;;;;;;;15.24;47.13;100409.16;5038804;28;20100;-68
2021/11/22 10:59:21;;;;;;;23.27;18.67;;;;;;;15.08;47.45;100378.66;5038009;28;20086;-69
2021/11/22 11:01:47;;;;;;;23.90;19.10;;;;;;;15.56;46.90;100415.56;5042205;28;20070;-69
2021/11/22 11:04:19;;;;;;;23.88;18.10;;;;;;;16.45;44.89;100406.53;5034652;28;20060;-69
2021/11/22 11:06:46;;;;;;;23.58;18.60;;;;;;;17.00;43.93;100375.16;5025814;28;20056;-69
2021/11/22 11:09:22;;;;;;;22.85;17.05;;;;;;;15.89;45.91;100402.56;5028061;28;20103;-69
2021/11/22 11:11:54;;;;;;;25.20;18.10;;;;;;;15.43;46.44;100403.50;5025667;28;20068;-68
2021/11/22 11:14:19;;;;;;;32.33;19.48;;;;;;;14.61;48.40;100386.53;5024739;28;20056;-69
2021/11/22 11:16:45;;;;;;;30.77;18.13;;;;;;;15.38;47.49;100377.16;5025659;28;20045;-69